sensor_id;sensor_type;location;lat;lon;timestamp;P1;durP1;ratioP1;P2;durP2;ratioP2
10677;SDS011;5387;48.722;9.110;2024-03-02T00:00:48;14.13;;;6.30;;
10677;SDS011;5387;48.722;9.110;2024-03-02T00:03:17;10.07;;;6.60;;
10677;SDS011;5387;48.722;9.110;2024-03-02T00:05:44;8.20;;;5.60;;
10677;SDS011;5387;48.722;9.110;2024-03-02T00:08:18;11.67;;;6.77;;
10677;SDS011;5387;48.722;9.110;2024-03-02T00:10:49;11.83;;;6.57;;
10677;SDS011;5387;48.722;9.110;2024-03-02T00:13:18;12.10;;;7.43;;
10677;SDS011;5387;48.722;9.110;2024-03-02T00:15:48;10.23;;;6.90;;
10677;SDS011;5387;48.722;9.110;2024-03-02T00:18:20;8.17;;;5.80;;
10677;SDS011;5387;48.722;9.110;2024-03-02T00:20:52;8.00;;;5.70;;
10677;SDS011;5387;48.722;9.110;2024-03-02T00:23:21;8.07;;;5.47;;
10677;SDS011;5387;48.722;9.110;2024-03-02T00:25:48;8.37;;;6.10;;
10677;SDS011;5387;48.722;9.110;2024-03-02T00:28:19;12.47;;;6.07;;
10677;SDS011;5387;48.722;9.110;2024-03-02T00:30:56;11.73;;;6.40;;
10677;SDS011;5387;48.722;9.110;2024-03-02T00:33:27;11.80;;;6.43;;
10677;SDS011;5387;48.722;9.110;2024-03-02T00:35:56;9.47;;;6.13;;
10677;SDS011;5387;48.722;9.110;2024-03-02T00:38:24;7.47;;;5.40;;
10677;SDS011;5387;48.722;9.110;2024-03-02T00:40:52;9.30;;;5.67;;
10677;SDS011;5387;48.722;9.110;2024-03-02T00:46:09;8.10;;;5.70;;
10677;SDS011;5387;48.722;9.110;2024-03-02T00:48:45;10.77;;;6.93;;
10677;SDS011;5387;48.722;9.110;2024-03-02T00:51:15;10.87;;;6.93;;
10677;SDS011;5387;48.722;9.110;2024-03-02T00:53:42;10.63;;;5.93;;
10677;SDS011;5387;48.722;9.110;2024-03-02T00:56:09;12.93;;;6.90;;
10677;SDS011;5387;48.722;9.110;2024-03-02T00:58:37;9.83;;;6.13;;
10677;SDS011;5387;48.722;9.110;2024-03-02T01:01:04;9.33;;;5.40;;
10677;SDS011;5387;48.722;9.110;2024-03-02T01:03:32;9.07;;;6.47;;
10677;SDS011;5387;48.722;9.110;2024-03-02T01:06:00;9.67;;;6.37;;
10677;SDS011;5387;48.722;9.110;2024-03-02T01:08:27;8.83;;;6.33;;
10677;SDS011;5387;48.722;9.110;2024-03-02T01:10:54;7.73;;;5.80;;
10677;SDS011;5387;48.722;9.110;2024-03-02T01:13:21;10.53;;;6.30;;
10677;SDS011;5387;48.722;9.110;2024-03-02T01:15:48;10.80;;;6.90;;
10677;SDS011;5387;48.722;9.110;2024-03-02T01:18:15;12.00;;;6.93;;
10677;SDS011;5387;48.722;9.110;2024-03-02T01:20:42;11.43;;;6.13;;
10677;SDS011;5387;48.722;9.110;2024-03-02T01:23:10;10.60;;;7.07;;
10677;SDS011;5387;48.722;9.110;2024-03-02T01:25:37;10.37;;;6.70;;
10677;SDS011;5387;48.722;9.110;2024-03-02T01:28:05;9.97;;;6.50;;
10677;SDS011;5387;48.722;9.110;2024-03-02T01:30:32;10.63;;;6.70;;
10677;SDS011;5387;48.722;9.110;2024-03-02T01:32:58;11.87;;;7.17;;
10677;SDS011;5387;48.722;9.110;2024-03-02T01:35:27;12.87;;;7.03;;
10677;SDS011;5387;48.722;9.110;2024-03-02T01:37:53;10.80;;;6.90;;
10677;SDS011;5387;48.722;9.110;2024-03-02T01:40:22;9.60;;;7.17;;
10677;SDS011;5387;48.722;9.110;2024-03-02T01:42:51;11.13;;;7.00;;
10677;SDS011;5387;48.722;9.110;2024-03-02T01:45:18;13.50;;;7.30;;
10677;SDS011;5387;48.722;9.110;2024-03-02T01:47:45;11.93;;;6.97;;
10677;SDS011;5387;48.722;9.110;2024-03-02T01:50:12;12.07;;;7.13;;
10677;SDS011;5387;48.722;9.110;2024-03-02T01:52:39;11.23;;;7.40;;
10677;SDS011;5387;48.722;9.110;2024-03-02T01:55:07;13.00;;;7.70;;
10677;SDS011;5387;48.722;9.110;2024-03-02T01:57:36;14.57;;;8.43;;
10677;SDS011;5387;48.722;9.110;2024-03-02T02:00:03;12.93;;;8.00;;
10677;SDS011;5387;48.722;9.110;2024-03-02T02:02:31;10.80;;;6.93;;
10677;SDS011;5387;48.722;9.110;2024-03-02T02:04:58;10.53;;;6.93;;
10677;SDS011;5387;48.722;9.110;2024-03-02T02:07:24;13.23;;;7.63;;
10677;SDS011;5387;48.722;9.110;2024-03-02T02:09:51;13.73;;;7.50;;
10677;SDS011;5387;48.722;9.110;2024-03-02T02:12:18;15.03;;;8.30;;
10677;SDS011;5387;48.722;9.110;2024-03-02T02:14:49;12.93;;;7.80;;
10677;SDS011;5387;48.722;9.110;2024-03-02T02:17:17;12.10;;;7.80;;
10677;SDS011;5387;48.722;9.110;2024-03-02T02:19:44;13.37;;;8.70;;
10677;SDS011;5387;48.722;9.110;2024-03-02T02:22:12;11.20;;;7.30;;
10677;SDS011;5387;48.722;9.110;2024-03-02T02:24:39;12.47;;;7.77;;
10677;SDS011;5387;48.722;9.110;2024-03-02T02:27:06;12.20;;;7.87;;
10677;SDS011;5387;48.722;9.110;2024-03-02T02:29:33;13.87;;;8.20;;
10677;SDS011;5387;48.722;9.110;2024-03-02T02:32:00;19.10;;;8.17;;
10677;SDS011;5387;48.722;9.110;2024-03-02T02:34:27;17.47;;;8.83;;
10677;SDS011;5387;48.722;9.110;2024-03-02T02:36:54;17.00;;;9.10;;
10677;SDS011;5387;48.722;9.110;2024-03-02T02:39:22;14.83;;;8.13;;
10677;SDS011;5387;48.722;9.110;2024-03-02T02:41:48;14.07;;;8.87;;
10677;SDS011;5387;48.722;9.110;2024-03-02T02:44:15;14.53;;;8.70;;
10677;SDS011;5387;48.722;9.110;2024-03-02T02:46:42;14.67;;;8.90;;
10677;SDS011;5387;48.722;9.110;2024-03-02T02:49:09;15.47;;;9.07;;
10677;SDS011;5387;48.722;9.110;2024-03-02T02:51:35;10.47;;;7.57;;
10677;SDS011;5387;48.722;9.110;2024-03-02T02:54:02;15.20;;;9.17;;
10677;SDS011;5387;48.722;9.110;2024-03-02T02:56:30;13.40;;;9.03;;
10677;SDS011;5387;48.722;9.110;2024-03-02T02:58:57;16.07;;;9.03;;
10677;SDS011;5387;48.722;9.110;2024-03-02T03:01:24;13.07;;;8.47;;
10677;SDS011;5387;48.722;9.110;2024-03-02T03:03:52;12.80;;;8.73;;
10677;SDS011;5387;48.722;9.110;2024-03-02T03:06:18;14.67;;;9.27;;
10677;SDS011;5387;48.722;9.110;2024-03-02T03:08:45;14.63;;;9.73;;
10677;SDS011;5387;48.722;9.110;2024-03-02T03:11:12;15.97;;;9.10;;
10677;SDS011;5387;48.722;9.110;2024-03-02T03:13:40;16.07;;;9.63;;
10677;SDS011;5387;48.722;9.110;2024-03-02T03:16:07;16.67;;;9.23;;
10677;SDS011;5387;48.722;9.110;2024-03-02T03:18:34;14.53;;;9.30;;
10677;SDS011;5387;48.722;9.110;2024-03-02T03:21:01;17.33;;;9.50;;
10677;SDS011;5387;48.722;9.110;2024-03-02T03:23:28;16.60;;;10.13;;
10677;SDS011;5387;48.722;9.110;2024-03-02T03:25:55;15.00;;;9.23;;
10677;SDS011;5387;48.722;9.110;2024-03-02T03:28:21;15.43;;;8.73;;
10677;SDS011;5387;48.722;9.110;2024-03-02T03:30:50;15.87;;;9.53;;
10677;SDS011;5387;48.722;9.110;2024-03-02T03:33:16;14.63;;;8.93;;
10677;SDS011;5387;48.722;9.110;2024-03-02T03:35:43;13.27;;;8.47;;
10677;SDS011;5387;48.722;9.110;2024-03-02T03:38:10;14.33;;;9.63;;
10677;SDS011;5387;48.722;9.110;2024-03-02T03:40:37;15.17;;;9.30;;
10677;SDS011;5387;48.722;9.110;2024-03-02T03:43:03;13.20;;;8.57;;
10677;SDS011;5387;48.722;9.110;2024-03-02T03:45:30;16.13;;;9.20;;
10677;SDS011;5387;48.722;9.110;2024-03-02T03:47:58;16.87;;;8.70;;
10677;SDS011;5387;48.722;9.110;2024-03-02T03:50:25;14.23;;;8.10;;
10677;SDS011;5387;48.722;9.110;2024-03-02T03:52:52;13.57;;;7.83;;
10677;SDS011;5387;48.722;9.110;2024-03-02T03:55:18;14.10;;;8.17;;
10677;SDS011;5387;48.722;9.110;2024-03-02T03:57:45;14.33;;;8.63;;
10677;SDS011;5387;48.722;9.110;2024-03-02T04:00:12;13.83;;;9.20;;
10677;SDS011;5387;48.722;9.110;2024-03-02T04:02:40;13.60;;;8.60;;
10677;SDS011;5387;48.722;9.110;2024-03-02T04:05:08;13.33;;;8.40;;
10677;SDS011;5387;48.722;9.110;2024-03-02T04:07:35;14.87;;;9.43;;
10677;SDS011;5387;48.722;9.110;2024-03-02T04:10:06;9.87;;;7.10;;
10677;SDS011;5387;48.722;9.110;2024-03-02T04:12:34;11.93;;;7.37;;
10677;SDS011;5387;48.722;9.110;2024-03-02T04:15:02;12.83;;;7.23;;
10677;SDS011;5387;48.722;9.110;2024-03-02T04:17:31;13.00;;;7.23;;
10677;SDS011;5387;48.722;9.110;2024-03-02T04:19:58;14.33;;;7.57;;
10677;SDS011;5387;48.722;9.110;2024-03-02T04:22:27;11.37;;;7.27;;
10677;SDS011;5387;48.722;9.110;2024-03-02T04:24:54;12.80;;;7.40;;
10677;SDS011;5387;48.722;9.110;2024-03-02T04:27:20;10.67;;;6.77;;
10677;SDS011;5387;48.722;9.110;2024-03-02T04:29:47;11.43;;;7.50;;
10677;SDS011;5387;48.722;9.110;2024-03-02T04:32:14;10.10;;;6.47;;
10677;SDS011;5387;48.722;9.110;2024-03-02T04:34:41;12.07;;;7.37;;
10677;SDS011;5387;48.722;9.110;2024-03-02T04:37:08;11.53;;;6.97;;
10677;SDS011;5387;48.722;9.110;2024-03-02T04:39:38;10.47;;;6.93;;
10677;SDS011;5387;48.722;9.110;2024-03-02T04:42:05;10.40;;;6.87;;
10677;SDS011;5387;48.722;9.110;2024-03-02T04:44:32;10.43;;;7.27;;
10677;SDS011;5387;48.722;9.110;2024-03-02T04:46:58;9.17;;;6.60;;
10677;SDS011;5387;48.722;9.110;2024-03-02T04:49:25;9.33;;;6.37;;
10677;SDS011;5387;48.722;9.110;2024-03-02T04:51:52;10.63;;;6.93;;
10677;SDS011;5387;48.722;9.110;2024-03-02T04:54:19;11.90;;;6.90;;
10677;SDS011;5387;48.722;9.110;2024-03-02T04:56:47;13.23;;;7.67;;
10677;SDS011;5387;48.722;9.110;2024-03-02T04:59:15;9.87;;;6.87;;
10677;SDS011;5387;48.722;9.110;2024-03-02T05:01:43;14.30;;;7.67;;
10677;SDS011;5387;48.722;9.110;2024-03-02T05:04:10;11.50;;;7.23;;
10677;SDS011;5387;48.722;9.110;2024-03-02T05:06:37;12.90;;;7.37;;
10677;SDS011;5387;48.722;9.110;2024-03-02T05:09:05;9.53;;;6.67;;
10677;SDS011;5387;48.722;9.110;2024-03-02T05:11:32;12.87;;;7.43;;
10677;SDS011;5387;48.722;9.110;2024-03-02T05:14:22;13.07;;;6.97;;
10677;SDS011;5387;48.722;9.110;2024-03-02T05:16:49;11.70;;;6.50;;
10677;SDS011;5387;48.722;9.110;2024-03-02T05:19:16;15.43;;;7.83;;
10677;SDS011;5387;48.722;9.110;2024-03-02T05:21:43;16.90;;;9.03;;
10677;SDS011;5387;48.722;9.110;2024-03-02T05:24:10;16.90;;;9.23;;
10677;SDS011;5387;48.722;9.110;2024-03-02T05:26:37;15.67;;;9.03;;
10677;SDS011;5387;48.722;9.110;2024-03-02T05:29:03;12.30;;;7.43;;
10677;SDS011;5387;48.722;9.110;2024-03-02T05:31:32;15.63;;;8.83;;
10677;SDS011;5387;48.722;9.110;2024-03-02T05:33:58;13.57;;;8.70;;
10677;SDS011;5387;48.722;9.110;2024-03-02T05:36:25;14.70;;;8.90;;
10677;SDS011;5387;48.722;9.110;2024-03-02T05:38:52;18.53;;;10.43;;
10677;SDS011;5387;48.722;9.110;2024-03-02T05:41:19;18.90;;;10.50;;
10677;SDS011;5387;48.722;9.110;2024-03-02T05:43:46;14.00;;;8.73;;
10677;SDS011;5387;48.722;9.110;2024-03-02T05:46:12;15.83;;;9.13;;
10677;SDS011;5387;48.722;9.110;2024-03-02T05:48:40;14.70;;;9.73;;
10677;SDS011;5387;48.722;9.110;2024-03-02T05:51:07;18.47;;;9.67;;
10677;SDS011;5387;48.722;9.110;2024-03-02T05:53:34;15.60;;;9.63;;
10677;SDS011;5387;48.722;9.110;2024-03-02T05:56:03;15.90;;;8.90;;
10677;SDS011;5387;48.722;9.110;2024-03-02T05:58:30;16.93;;;9.27;;
10677;SDS011;5387;48.722;9.110;2024-03-02T06:01:08;14.20;;;8.67;;
10677;SDS011;5387;48.722;9.110;2024-03-02T06:03:34;13.53;;;8.57;;
10677;SDS011;5387;48.722;9.110;2024-03-02T06:06:03;16.87;;;9.43;;
10677;SDS011;5387;48.722;9.110;2024-03-02T06:08:30;16.30;;;8.63;;
10677;SDS011;5387;48.722;9.110;2024-03-02T06:10:57;16.33;;;9.47;;
10677;SDS011;5387;48.722;9.110;2024-03-02T06:13:24;14.20;;;8.40;;
10677;SDS011;5387;48.722;9.110;2024-03-02T06:15:51;15.33;;;9.00;;
10677;SDS011;5387;48.722;9.110;2024-03-02T06:18:18;14.13;;;8.57;;
10677;SDS011;5387;48.722;9.110;2024-03-02T06:20:45;13.70;;;8.10;;
10677;SDS011;5387;48.722;9.110;2024-03-02T06:23:13;12.67;;;7.77;;
10677;SDS011;5387;48.722;9.110;2024-03-02T06:25:40;14.53;;;8.40;;
10677;SDS011;5387;48.722;9.110;2024-03-02T06:28:06;18.20;;;8.13;;
10677;SDS011;5387;48.722;9.110;2024-03-02T06:30:33;13.50;;;8.47;;
10677;SDS011;5387;48.722;9.110;2024-03-02T06:33:00;14.30;;;8.03;;
10677;SDS011;5387;48.722;9.110;2024-03-02T06:35:28;13.37;;;8.73;;
10677;SDS011;5387;48.722;9.110;2024-03-02T06:37:55;14.47;;;7.97;;
10677;SDS011;5387;48.722;9.110;2024-03-02T06:40:23;16.23;;;8.87;;
10677;SDS011;5387;48.722;9.110;2024-03-02T06:42:50;16.17;;;8.80;;
10677;SDS011;5387;48.722;9.110;2024-03-02T06:45:17;11.50;;;8.27;;
10677;SDS011;5387;48.722;9.110;2024-03-02T06:47:43;12.80;;;8.63;;
10677;SDS011;5387;48.722;9.110;2024-03-02T06:50:10;16.00;;;8.77;;
10677;SDS011;5387;48.722;9.110;2024-03-02T06:52:38;18.13;;;8.30;;
10677;SDS011;5387;48.722;9.110;2024-03-02T06:55:05;12.37;;;7.67;;
10677;SDS011;5387;48.722;9.110;2024-03-02T06:57:33;13.83;;;6.80;;
10677;SDS011;5387;48.722;9.110;2024-03-02T07:00:00;13.30;;;7.03;;
10677;SDS011;5387;48.722;9.110;2024-03-02T07:02:30;11.30;;;6.93;;
10677;SDS011;5387;48.722;9.110;2024-03-02T07:04:57;15.07;;;7.93;;
10677;SDS011;5387;48.722;9.110;2024-03-02T07:07:24;13.80;;;7.93;;
10677;SDS011;5387;48.722;9.110;2024-03-02T07:09:51;9.70;;;6.77;;
10677;SDS011;5387;48.722;9.110;2024-03-02T07:12:17;10.27;;;6.97;;
10677;SDS011;5387;48.722;9.110;2024-03-02T07:14:46;11.00;;;7.53;;
10677;SDS011;5387;48.722;9.110;2024-03-02T07:17:36;10.50;;;6.90;;
10677;SDS011;5387;48.722;9.110;2024-03-02T07:20:03;12.90;;;7.97;;
10677;SDS011;5387;48.722;9.110;2024-03-02T07:22:31;12.83;;;7.63;;
10677;SDS011;5387;48.722;9.110;2024-03-02T07:24:58;12.33;;;7.17;;
10677;SDS011;5387;48.722;9.110;2024-03-02T07:27:25;10.23;;;6.73;;
10677;SDS011;5387;48.722;9.110;2024-03-02T07:29:53;12.17;;;6.70;;
10677;SDS011;5387;48.722;9.110;2024-03-02T07:32:20;10.53;;;7.23;;
10677;SDS011;5387;48.722;9.110;2024-03-02T07:34:47;10.07;;;6.13;;
10677;SDS011;5387;48.722;9.110;2024-03-02T07:37:16;9.57;;;6.80;;
10677;SDS011;5387;48.722;9.110;2024-03-02T07:39:43;10.47;;;6.30;;
10677;SDS011;5387;48.722;9.110;2024-03-02T07:42:10;10.20;;;7.13;;
10677;SDS011;5387;48.722;9.110;2024-03-02T07:44:37;12.47;;;7.87;;
10677;SDS011;5387;48.722;9.110;2024-03-02T07:47:05;11.33;;;7.27;;
10677;SDS011;5387;48.722;9.110;2024-03-02T07:49:33;7.80;;;6.13;;
10677;SDS011;5387;48.722;9.110;2024-03-02T07:52:00;13.27;;;7.57;;
10677;SDS011;5387;48.722;9.110;2024-03-02T07:54:26;10.50;;;6.60;;
10677;SDS011;5387;48.722;9.110;2024-03-02T07:56:53;13.90;;;7.77;;
10677;SDS011;5387;48.722;9.110;2024-03-02T07:59:20;8.77;;;5.93;;
10677;SDS011;5387;48.722;9.110;2024-03-02T08:01:48;13.57;;;8.00;;
10677;SDS011;5387;48.722;9.110;2024-03-02T08:04:16;15.40;;;8.30;;
10677;SDS011;5387;48.722;9.110;2024-03-02T08:06:44;9.03;;;6.33;;
10677;SDS011;5387;48.722;9.110;2024-03-02T08:09:12;9.43;;;6.40;;
10677;SDS011;5387;48.722;9.110;2024-03-02T08:11:39;10.63;;;6.33;;
10677;SDS011;5387;48.722;9.110;2024-03-02T08:14:05;13.63;;;6.63;;
10677;SDS011;5387;48.722;9.110;2024-03-02T08:16:31;8.60;;;6.07;;
10677;SDS011;5387;48.722;9.110;2024-03-02T08:18:59;8.77;;;6.00;;
10677;SDS011;5387;48.722;9.110;2024-03-02T08:21:27;7.47;;;5.40;;
10677;SDS011;5387;48.722;9.110;2024-03-02T08:23:55;9.07;;;6.37;;
10677;SDS011;5387;48.722;9.110;2024-03-02T08:26:23;9.90;;;5.87;;
10677;SDS011;5387;48.722;9.110;2024-03-02T08:28:50;10.90;;;5.90;;
10677;SDS011;5387;48.722;9.110;2024-03-02T08:31:16;9.40;;;5.90;;
10677;SDS011;5387;48.722;9.110;2024-03-02T08:33:43;6.87;;;4.87;;
10677;SDS011;5387;48.722;9.110;2024-03-02T08:36:10;8.40;;;5.33;;
10677;SDS011;5387;48.722;9.110;2024-03-02T08:38:38;8.43;;;5.43;;
10677;SDS011;5387;48.722;9.110;2024-03-02T08:41:05;10.97;;;5.47;;
10677;SDS011;5387;48.722;9.110;2024-03-02T08:43:33;8.67;;;6.13;;
10677;SDS011;5387;48.722;9.110;2024-03-02T08:46:00;6.60;;;4.70;;
10677;SDS011;5387;48.722;9.110;2024-03-02T08:48:27;7.07;;;4.73;;
10677;SDS011;5387;48.722;9.110;2024-03-02T08:50:54;6.47;;;4.70;;
10677;SDS011;5387;48.722;9.110;2024-03-02T08:53:21;6.23;;;4.67;;
10677;SDS011;5387;48.722;9.110;2024-03-02T08:55:49;5.47;;;4.20;;
10677;SDS011;5387;48.722;9.110;2024-03-02T08:58:16;5.87;;;4.27;;
10677;SDS011;5387;48.722;9.110;2024-03-02T09:00:42;5.57;;;3.93;;
10677;SDS011;5387;48.722;9.110;2024-03-02T09:03:09;4.93;;;4.00;;
10677;SDS011;5387;48.722;9.110;2024-03-02T09:05:36;6.53;;;4.13;;
10677;SDS011;5387;48.722;9.110;2024-03-02T09:08:03;6.30;;;4.97;;
10677;SDS011;5387;48.722;9.110;2024-03-02T09:10:31;5.77;;;4.37;;
10677;SDS011;5387;48.722;9.110;2024-03-02T09:12:59;6.53;;;4.30;;
10677;SDS011;5387;48.722;9.110;2024-03-02T09:15:26;7.67;;;4.47;;
10677;SDS011;5387;48.722;9.110;2024-03-02T09:17:53;5.13;;;3.93;;
10677;SDS011;5387;48.722;9.110;2024-03-02T09:20:19;6.13;;;4.30;;
10677;SDS011;5387;48.722;9.110;2024-03-02T09:22:46;5.07;;;3.90;;
10677;SDS011;5387;48.722;9.110;2024-03-02T09:25:13;3.90;;;3.30;;
10677;SDS011;5387;48.722;9.110;2024-03-02T09:27:41;3.67;;;3.03;;
10677;SDS011;5387;48.722;9.110;2024-03-02T09:30:09;3.67;;;3.37;;
10677;SDS011;5387;48.722;9.110;2024-03-02T09:32:38;3.37;;;3.00;;
10677;SDS011;5387;48.722;9.110;2024-03-02T09:35:05;4.53;;;3.43;;
10677;SDS011;5387;48.722;9.110;2024-03-02T09:37:34;5.40;;;3.57;;
10677;SDS011;5387;48.722;9.110;2024-03-02T09:40:00;3.77;;;3.10;;
10677;SDS011;5387;48.722;9.110;2024-03-02T09:42:27;4.23;;;3.60;;
10677;SDS011;5387;48.722;9.110;2024-03-02T09:44:55;6.20;;;3.77;;
10677;SDS011;5387;48.722;9.110;2024-03-02T09:47:24;4.37;;;3.53;;
10677;SDS011;5387;48.722;9.110;2024-03-02T09:49:51;3.60;;;3.00;;
10677;SDS011;5387;48.722;9.110;2024-03-02T09:52:18;4.50;;;3.30;;
10677;SDS011;5387;48.722;9.110;2024-03-02T09:54:47;3.17;;;2.87;;
10677;SDS011;5387;48.722;9.110;2024-03-02T09:57:14;4.97;;;3.40;;
10677;SDS011;5387;48.722;9.110;2024-03-02T09:59:41;4.03;;;2.80;;
10677;SDS011;5387;48.722;9.110;2024-03-02T10:02:10;2.63;;;2.43;;
10677;SDS011;5387;48.722;9.110;2024-03-02T10:04:38;2.80;;;2.60;;
10677;SDS011;5387;48.722;9.110;2024-03-02T10:07:11;7.67;;;2.80;;
10677;SDS011;5387;48.722;9.110;2024-03-02T10:09:40;3.63;;;2.90;;
10677;SDS011;5387;48.722;9.110;2024-03-02T10:12:08;3.40;;;2.63;;
10677;SDS011;5387;48.722;9.110;2024-03-02T10:14:36;6.00;;;2.47;;
10677;SDS011;5387;48.722;9.110;2024-03-02T10:17:04;2.50;;;2.30;;
10677;SDS011;5387;48.722;9.110;2024-03-02T10:19:32;1.97;;;1.80;;
10677;SDS011;5387;48.722;9.110;2024-03-02T10:22:01;2.50;;;2.30;;
10677;SDS011;5387;48.722;9.110;2024-03-02T10:24:34;2.50;;;2.30;;
10677;SDS011;5387;48.722;9.110;2024-03-02T10:27:06;2.20;;;1.90;;
10677;SDS011;5387;48.722;9.110;2024-03-02T10:29:36;2.20;;;2.00;;
10677;SDS011;5387;48.722;9.110;2024-03-02T10:32:04;1.93;;;1.83;;
10677;SDS011;5387;48.722;9.110;2024-03-02T10:34:32;2.30;;;2.10;;
10677;SDS011;5387;48.722;9.110;2024-03-02T10:36:59;5.40;;;2.20;;
10677;SDS011;5387;48.722;9.110;2024-03-02T10:39:27;3.63;;;1.70;;
10677;SDS011;5387;48.722;9.110;2024-03-02T10:41:56;2.30;;;1.90;;
10677;SDS011;5387;48.722;9.110;2024-03-02T10:44:24;3.03;;;1.90;;
10677;SDS011;5387;48.722;9.110;2024-03-02T10:46:52;2.33;;;1.80;;
10677;SDS011;5387;48.722;9.110;2024-03-02T10:49:21;4.87;;;1.90;;
10677;SDS011;5387;48.722;9.110;2024-03-02T10:51:50;1.70;;;1.60;;
10677;SDS011;5387;48.722;9.110;2024-03-02T10:54:18;2.63;;;2.20;;
10677;SDS011;5387;48.722;9.110;2024-03-02T10:56:51;3.53;;;2.13;;
10677;SDS011;5387;48.722;9.110;2024-03-02T10:59:21;2.80;;;2.33;;
10677;SDS011;5387;48.722;9.110;2024-03-02T11:01:54;2.50;;;2.30;;
10677;SDS011;5387;48.722;9.110;2024-03-02T11:04:24;3.45;;;2.40;;
10677;SDS011;5387;48.722;9.110;2024-03-02T11:06:52;2.40;;;2.20;;
10677;SDS011;5387;48.722;9.110;2024-03-02T11:09:27;2.25;;;2.05;;
10677;SDS011;5387;48.722;9.110;2024-03-02T11:11:59;2.63;;;2.43;;
10677;SDS011;5387;48.722;9.110;2024-03-02T11:14:29;2.30;;;2.00;;
10677;SDS011;5387;48.722;9.110;2024-03-02T11:16:58;2.15;;;1.80;;
10677;SDS011;5387;48.722;9.110;2024-03-02T11:19:26;1.65;;;1.55;;
10677;SDS011;5387;48.722;9.110;2024-03-02T11:21:54;1.30;;;1.30;;
10677;SDS011;5387;48.722;9.110;2024-03-02T11:24:30;1.77;;;1.65;;
10677;SDS011;5387;48.722;9.110;2024-03-02T11:27:00;1.45;;;1.35;;
10677;SDS011;5387;48.722;9.110;2024-03-02T11:29:43;3.03;;;1.90;;
10677;SDS011;5387;48.722;9.110;2024-03-02T11:32:13;1.80;;;1.70;;
10677;SDS011;5387;48.722;9.110;2024-03-02T11:34:45;1.65;;;1.55;;
10677;SDS011;5387;48.722;9.110;2024-03-02T11:37:13;1.98;;;1.88;;
10677;SDS011;5387;48.722;9.110;2024-03-02T11:39:42;2.78;;;1.50;;
10677;SDS011;5387;48.722;9.110;2024-03-02T11:42:10;2.22;;;1.90;;
10677;SDS011;5387;48.722;9.110;2024-03-02T11:44:39;1.70;;;1.60;;
10677;SDS011;5387;48.722;9.110;2024-03-02T11:47:08;2.90;;;1.70;;
10677;SDS011;5387;48.722;9.110;2024-03-02T11:49:39;2.60;;;2.40;;
10677;SDS011;5387;48.722;9.110;2024-03-02T11:52:08;2.22;;;2.03;;
10677;SDS011;5387;48.722;9.110;2024-03-02T11:54:36;2.35;;;2.15;;
10677;SDS011;5387;48.722;9.110;2024-03-02T11:57:06;2.05;;;1.80;;
10677;SDS011;5387;48.722;9.110;2024-03-02T11:59:33;1.90;;;1.80;;
10677;SDS011;5387;48.722;9.110;2024-03-02T12:02:01;1.88;;;1.70;;
10677;SDS011;5387;48.722;9.110;2024-03-02T12:04:28;2.53;;;2.05;;
10677;SDS011;5387;48.722;9.110;2024-03-02T12:06:56;2.45;;;2.25;;
10677;SDS011;5387;48.722;9.110;2024-03-02T12:09:25;1.75;;;1.65;;
10677;SDS011;5387;48.722;9.110;2024-03-02T12:12:03;3.55;;;1.60;;
10677;SDS011;5387;48.722;9.110;2024-03-02T12:14:32;1.73;;;1.63;;
10677;SDS011;5387;48.722;9.110;2024-03-02T12:17:01;4.25;;;1.52;;
10677;SDS011;5387;48.722;9.110;2024-03-02T12:19:29;2.97;;;1.40;;
10677;SDS011;5387;48.722;9.110;2024-03-02T12:21:58;1.85;;;1.50;;
10677;SDS011;5387;48.722;9.110;2024-03-02T12:24:26;1.42;;;1.33;;
10677;SDS011;5387;48.722;9.110;2024-03-02T12:26:54;2.28;;;1.38;;
10677;SDS011;5387;48.722;9.110;2024-03-02T12:29:22;1.65;;;1.55;;
10677;SDS011;5387;48.722;9.110;2024-03-02T12:31:51;1.50;;;1.40;;
10677;SDS011;5387;48.722;9.110;2024-03-02T12:34:18;1.73;;;1.38;;
10677;SDS011;5387;48.722;9.110;2024-03-02T12:36:45;1.50;;;1.40;;
10677;SDS011;5387;48.722;9.110;2024-03-02T12:39:14;1.33;;;1.33;;
10677;SDS011;5387;48.722;9.110;2024-03-02T12:41:41;3.15;;;1.45;;
10677;SDS011;5387;48.722;9.110;2024-03-02T12:44:07;2.05;;;1.55;;
10677;SDS011;5387;48.722;9.110;2024-03-02T12:46:35;1.30;;;1.30;;
10677;SDS011;5387;48.722;9.110;2024-03-02T12:49:07;1.75;;;1.60;;
10677;SDS011;5387;48.722;9.110;2024-03-02T12:51:36;1.80;;;1.70;;
10677;SDS011;5387;48.722;9.110;2024-03-02T12:54:04;2.10;;;1.60;;
10677;SDS011;5387;48.722;9.110;2024-03-02T12:56:31;1.30;;;1.30;;
10677;SDS011;5387;48.722;9.110;2024-03-02T12:58:59;2.05;;;1.85;;
10677;SDS011;5387;48.722;9.110;2024-03-02T13:01:26;1.73;;;1.63;;
10677;SDS011;5387;48.722;9.110;2024-03-02T13:03:54;2.00;;;1.85;;
10677;SDS011;5387;48.722;9.110;2024-03-02T13:06:23;1.65;;;1.55;;
10677;SDS011;5387;48.722;9.110;2024-03-02T13:08:52;1.73;;;1.63;;
10677;SDS011;5387;48.722;9.110;2024-03-02T13:11:20;2.35;;;2.15;;
10677;SDS011;5387;48.722;9.110;2024-03-02T13:13:47;1.70;;;1.60;;
10677;SDS011;5387;48.722;9.110;2024-03-02T13:16:14;3.55;;;2.00;;
10677;SDS011;5387;48.722;9.110;2024-03-02T13:18:44;3.45;;;2.13;;
10677;SDS011;5387;48.722;9.110;2024-03-02T13:21:11;2.55;;;2.35;;
10677;SDS011;5387;48.722;9.110;2024-03-02T13:23:39;2.65;;;2.45;;
10677;SDS011;5387;48.722;9.110;2024-03-02T13:26:06;3.97;;;3.60;;
10677;SDS011;5387;48.722;9.110;2024-03-02T13:28:35;5.60;;;3.65;;
10677;SDS011;5387;48.722;9.110;2024-03-02T13:31:02;7.00;;;3.75;;
10677;SDS011;5387;48.722;9.110;2024-03-02T13:33:30;2.00;;;1.85;;
10677;SDS011;5387;48.722;9.110;2024-03-02T13:35:58;5.55;;;2.30;;
10677;SDS011;5387;48.722;9.110;2024-03-02T13:38:25;5.82;;;2.20;;
10677;SDS011;5387;48.722;9.110;2024-03-02T13:40:53;1.70;;;1.60;;
10677;SDS011;5387;48.722;9.110;2024-03-02T13:43:20;2.28;;;1.67;;
10677;SDS011;5387;48.722;9.110;2024-03-02T13:45:48;1.45;;;1.35;;
10677;SDS011;5387;48.722;9.110;2024-03-02T13:48:17;1.63;;;1.42;;
10677;SDS011;5387;48.722;9.110;2024-03-02T13:50:43;2.55;;;1.80;;
10677;SDS011;5387;48.722;9.110;2024-03-02T13:53:10;1.75;;;1.63;;
10677;SDS011;5387;48.722;9.110;2024-03-02T13:55:37;4.20;;;1.80;;
10677;SDS011;5387;48.722;9.110;2024-03-02T13:58:06;1.70;;;1.60;;
10677;SDS011;5387;48.722;9.110;2024-03-02T14:00:33;1.67;;;1.58;;
10677;SDS011;5387;48.722;9.110;2024-03-02T14:03:00;1.52;;;1.40;;
10677;SDS011;5387;48.722;9.110;2024-03-02T14:05:28;1.73;;;1.40;;
10677;SDS011;5387;48.722;9.110;2024-03-02T14:07:55;1.67;;;1.58;;
10677;SDS011;5387;48.722;9.110;2024-03-02T14:10:22;1.63;;;1.52;;
10677;SDS011;5387;48.722;9.110;2024-03-02T14:12:48;1.83;;;1.60;;
10677;SDS011;5387;48.722;9.110;2024-03-02T14:15:17;1.80;;;1.45;;
10677;SDS011;5387;48.722;9.110;2024-03-02T14:17:43;2.08;;;1.40;;
10677;SDS011;5387;48.722;9.110;2024-03-02T14:20:10;1.25;;;1.20;;
10677;SDS011;5387;48.722;9.110;2024-03-02T14:22:38;1.05;;;1.05;;
10677;SDS011;5387;48.722;9.110;2024-03-02T14:25:05;3.30;;;1.40;;
10677;SDS011;5387;48.722;9.110;2024-03-02T14:27:33;2.30;;;1.67;;
10677;SDS011;5387;48.722;9.110;2024-03-02T14:30:00;1.42;;;1.30;;
10677;SDS011;5387;48.722;9.110;2024-03-02T14:32:28;1.23;;;1.13;;
10677;SDS011;5387;48.722;9.110;2024-03-02T14:34:55;4.03;;;1.25;;
10677;SDS011;5387;48.722;9.110;2024-03-02T14:37:22;1.75;;;1.65;;
10677;SDS011;5387;48.722;9.110;2024-03-02T14:39:49;1.60;;;1.50;;
10677;SDS011;5387;48.722;9.110;2024-03-02T14:42:15;2.20;;;1.75;;
10677;SDS011;5387;48.722;9.110;2024-03-02T14:44:42;2.17;;;1.20;;
10677;SDS011;5387;48.722;9.110;2024-03-02T14:47:09;1.58;;;1.48;;
10677;SDS011;5387;48.722;9.110;2024-03-02T14:49:38;1.23;;;1.13;;
10677;SDS011;5387;48.722;9.110;2024-03-02T14:52:05;2.10;;;1.40;;
10677;SDS011;5387;48.722;9.110;2024-03-02T14:54:32;1.30;;;1.20;;
10677;SDS011;5387;48.722;9.110;2024-03-02T14:57:00;1.30;;;1.17;;
10677;SDS011;5387;48.722;9.110;2024-03-02T14:59:27;3.13;;;1.42;;
10677;SDS011;5387;48.722;9.110;2024-03-02T15:01:54;1.30;;;1.20;;